sensor_id;sensor_type;location;lat;lon;timestamp;temperature;humidity
17172;DHT22;8701;50.150;8.756;2024-02-04T00:03:33;10.40;99.90
17172;DHT22;8701;50.150;8.756;2024-02-04T00:07:36;10.40;99.90
17172;DHT22;8701;50.150;8.756;2024-02-04T00:11:38;10.30;99.90
17172;DHT22;8701;50.150;8.756;2024-02-04T00:15:41;10.30;99.90
17172;DHT22;8701;50.150;8.756;2024-02-04T00:19:44;10.30;99.90
17172;DHT22;8701;50.150;8.756;2024-02-04T00:23:46;10.20;99.90
17172;DHT22;8701;50.150;8.756;2024-02-04T00:27:48;10.20;99.90
17172;DHT22;8701;50.150;8.756;2024-02-04T00:31:52;10.10;99.90
17172;DHT22;8701;50.150;8.756;2024-02-04T00:35:55;10.10;99.90
17172;DHT22;8701;50.150;8.756;2024-02-04T00:39:57;10.10;99.90
17172;DHT22;8701;50.150;8.756;2024-02-04T00:43:59;10.10;99.90
17172;DHT22;8701;50.150;8.756;2024-02-04T00:48:04;10.10;99.90
17172;DHT22;8701;50.150;8.756;2024-02-04T00:52:06;10.10;99.90
17172;DHT22;8701;50.150;8.756;2024-02-04T00:56:08;10.00;99.90
17172;DHT22;8701;50.150;8.756;2024-02-04T01:00:12;10.00;99.90
17172;DHT22;8701;50.150;8.756;2024-02-04T01:04:16;10.00;99.90
17172;DHT22;8701;50.150;8.756;2024-02-04T01:08:18;10.00;99.90
17172;DHT22;8701;50.150;8.756;2024-02-04T01:12:20;10.00;99.90
17172;DHT22;8701;50.150;8.756;2024-02-04T01:16:22;10.00;99.90
17172;DHT22;8701;50.150;8.756;2024-02-04T01:20:26;10.00;99.90
17172;DHT22;8701;50.150;8.756;2024-02-04T01:24:29;10.00;99.90
17172;DHT22;8701;50.150;8.756;2024-02-04T01:28:32;10.00;99.90
17172;DHT22;8701;50.150;8.756;2024-02-04T01:32:34;10.00;99.90
17172;DHT22;8701;50.150;8.756;2024-02-04T01:36:38;10.00;99.90
17172;DHT22;8701;50.150;8.756;2024-02-04T01:40:40;10.00;99.90
17172;DHT22;8701;50.150;8.756;2024-02-04T01:44:42;10.10;99.90
17172;DHT22;8701;50.150;8.756;2024-02-04T01:48:45;10.10;99.90
17172;DHT22;8701;50.150;8.756;2024-02-04T01:52:50;10.10;99.90
17172;DHT22;8701;50.150;8.756;2024-02-04T01:56:55;10.10;99.90
17172;DHT22;8701;50.150;8.756;2024-02-04T02:00:57;10.10;99.90
17172;DHT22;8701;50.150;8.756;2024-02-04T02:04:59;10.10;99.90
17172;DHT22;8701;50.150;8.756;2024-02-04T02:09:03;10.10;99.90
17172;DHT22;8701;50.150;8.756;2024-02-04T02:13:11;10.10;99.90
17172;DHT22;8701;50.150;8.756;2024-02-04T02:17:16;10.10;99.90
17172;DHT22;8701;50.150;8.756;2024-02-04T02:21:32;10.00;99.90
17172;DHT22;8701;50.150;8.756;2024-02-04T02:25:41;10.00;99.90
17172;DHT22;8701;50.150;8.756;2024-02-04T02:29:43;10.00;99.90
17172;DHT22;8701;50.150;8.756;2024-02-04T02:33:45;9.90;99.90
17172;DHT22;8701;50.150;8.756;2024-02-04T02:37:54;9.90;99.90
17172;DHT22;8701;50.150;8.756;2024-02-04T02:42:01;9.80;99.90
17172;DHT22;8701;50.150;8.756;2024-02-04T02:46:04;9.70;99.90
17172;DHT22;8701;50.150;8.756;2024-02-04T02:50:07;9.70;99.90
17172;DHT22;8701;50.150;8.756;2024-02-04T02:54:09;9.70;99.90
17172;DHT22;8701;50.150;8.756;2024-02-04T02:58:14;9.70;99.90
17172;DHT22;8701;50.150;8.756;2024-02-04T03:02:16;9.70;99.90
17172;DHT22;8701;50.150;8.756;2024-02-04T03:06:18;9.60;99.90
17172;DHT22;8701;50.150;8.756;2024-02-04T03:10:21;9.60;99.90
17172;DHT22;8701;50.150;8.756;2024-02-04T03:14:24;9.50;99.90
17172;DHT22;8701;50.150;8.756;2024-02-04T03:18:27;9.50;99.90
17172;DHT22;8701;50.150;8.756;2024-02-04T03:22:29;9.50;99.90
17172;DHT22;8701;50.150;8.756;2024-02-04T03:26:31;9.40;99.90
17172;DHT22;8701;50.150;8.756;2024-02-04T03:30:36;9.40;99.90
17172;DHT22;8701;50.150;8.756;2024-02-04T03:34:38;9.40;99.90
17172;DHT22;8701;50.150;8.756;2024-02-04T03:38:41;9.40;99.90
17172;DHT22;8701;50.150;8.756;2024-02-04T03:42:44;9.40;99.90
17172;DHT22;8701;50.150;8.756;2024-02-04T03:46:49;9.40;99.90
17172;DHT22;8701;50.150;8.756;2024-02-04T03:50:52;9.40;99.90
17172;DHT22;8701;50.150;8.756;2024-02-04T03:54:54;9.30;99.90
17172;DHT22;8701;50.150;8.756;2024-02-04T03:58:57;9.30;99.90
17172;DHT22;8701;50.150;8.756;2024-02-04T04:03:00;9.30;99.90
17172;DHT22;8701;50.150;8.756;2024-02-04T04:07:03;9.30;99.90
17172;DHT22;8701;50.150;8.756;2024-02-04T04:11:07;9.40;99.90
17172;DHT22;8701;50.150;8.756;2024-02-04T04:15:10;9.40;99.90
17172;DHT22;8701;50.150;8.756;2024-02-04T04:19:13;9.30;99.90
17172;DHT22;8701;50.150;8.756;2024-02-04T04:23:15;9.40;99.90
17172;DHT22;8701;50.150;8.756;2024-02-04T04:27:18;9.30;99.90
17172;DHT22;8701;50.150;8.756;2024-02-04T04:31:20;9.40;99.90
17172;DHT22;8701;50.150;8.756;2024-02-04T04:35:23;9.40;99.90
17172;DHT22;8701;50.150;8.756;2024-02-04T04:39:26;9.40;99.90
17172;DHT22;8701;50.150;8.756;2024-02-04T04:43:29;9.40;99.90
17172;DHT22;8701;50.150;8.756;2024-02-04T04:47:31;9.40;99.90
17172;DHT22;8701;50.150;8.756;2024-02-04T04:51:35;9.40;99.90
17172;DHT22;8701;50.150;8.756;2024-02-04T04:55:38;9.40;99.90
17172;DHT22;8701;50.150;8.756;2024-02-04T04:59:40;9.40;99.90
17172;DHT22;8701;50.150;8.756;2024-02-04T05:03:42;9.40;99.90
17172;DHT22;8701;50.150;8.756;2024-02-04T05:07:46;9.40;99.90
17172;DHT22;8701;50.150;8.756;2024-02-04T05:11:48;9.40;99.90
17172;DHT22;8701;50.150;8.756;2024-02-04T05:15:50;9.50;99.90
17172;DHT22;8701;50.150;8.756;2024-02-04T05:19:53;9.50;99.90
17172;DHT22;8701;50.150;8.756;2024-02-04T05:23:56;9.50;99.90
17172;DHT22;8701;50.150;8.756;2024-02-04T05:27:59;9.50;99.90
17172;DHT22;8701;50.150;8.756;2024-02-04T05:32:02;9.50;99.90
17172;DHT22;8701;50.150;8.756;2024-02-04T05:36:04;9.60;99.90
17172;DHT22;8701;50.150;8.756;2024-02-04T05:40:09;9.60;99.90
17172;DHT22;8701;50.150;8.756;2024-02-04T05:44:11;9.60;99.90
17172;DHT22;8701;50.150;8.756;2024-02-04T05:48:13;9.70;99.90
17172;DHT22;8701;50.150;8.756;2024-02-04T05:52:16;9.70;99.90
17172;DHT22;8701;50.150;8.756;2024-02-04T05:56:19;9.70;99.90
17172;DHT22;8701;50.150;8.756;2024-02-04T06:00:23;9.70;99.90
17172;DHT22;8701;50.150;8.756;2024-02-04T06:04:25;9.70;99.90
17172;DHT22;8701;50.150;8.756;2024-02-04T06:08:27;9.70;99.90
17172;DHT22;8701;50.150;8.756;2024-02-04T06:12:31;9.70;99.90
17172;DHT22;8701;50.150;8.756;2024-02-04T06:16:33;9.70;99.90
17172;DHT22;8701;50.150;8.756;2024-02-04T06:20:35;9.70;99.90
17172;DHT22;8701;50.150;8.756;2024-02-04T06:24:38;9.70;99.90
17172;DHT22;8701;50.150;8.756;2024-02-04T06:28:43;9.70;99.90
17172;DHT22;8701;50.150;8.756;2024-02-04T06:32:47;9.70;99.90
17172;DHT22;8701;50.150;8.756;2024-02-04T06:36:50;9.70;99.90
17172;DHT22;8701;50.150;8.756;2024-02-04T06:40:52;9.70;99.90
17172;DHT22;8701;50.150;8.756;2024-02-04T06:44:57;9.70;99.90
17172;DHT22;8701;50.150;8.756;2024-02-04T06:49:00;9.70;99.90
17172;DHT22;8701;50.150;8.756;2024-02-04T06:53:02;9.80;99.90
17172;DHT22;8701;50.150;8.756;2024-02-04T06:57:04;9.80;99.90
17172;DHT22;8701;50.150;8.756;2024-02-04T07:01:08;9.80;99.90
17172;DHT22;8701;50.150;8.756;2024-02-04T07:05:10;9.80;99.90
17172;DHT22;8701;50.150;8.756;2024-02-04T07:09:12;9.80;99.90
17172;DHT22;8701;50.150;8.756;2024-02-04T07:13:15;9.80;99.90
17172;DHT22;8701;50.150;8.756;2024-02-04T07:17:18;9.80;99.90
17172;DHT22;8701;50.150;8.756;2024-02-04T07:21:20;9.90;99.90
17172;DHT22;8701;50.150;8.756;2024-02-04T07:25:22;9.90;99.90
17172;DHT22;8701;50.150;8.756;2024-02-04T07:29:25;9.90;99.90
17172;DHT22;8701;50.150;8.756;2024-02-04T07:33:28;10.00;99.90
17172;DHT22;8701;50.150;8.756;2024-02-04T07:37:30;9.90;99.90
17172;DHT22;8701;50.150;8.756;2024-02-04T07:41:33;10.00;99.90
17172;DHT22;8701;50.150;8.756;2024-02-04T07:45:35;10.00;99.90
17172;DHT22;8701;50.150;8.756;2024-02-04T07:49:38;10.00;99.90
17172;DHT22;8701;50.150;8.756;2024-02-04T07:53:41;10.00;99.90
17172;DHT22;8701;50.150;8.756;2024-02-04T07:57:43;10.00;99.90
17172;DHT22;8701;50.150;8.756;2024-02-04T08:01:45;10.10;99.90
17172;DHT22;8701;50.150;8.756;2024-02-04T08:05:49;10.10;99.90
17172;DHT22;8701;50.150;8.756;2024-02-04T08:09:51;10.10;99.90
17172;DHT22;8701;50.150;8.756;2024-02-04T08:13:53;10.00;99.90
17172;DHT22;8701;50.150;8.756;2024-02-04T08:17:55;10.10;99.90
17172;DHT22;8701;50.150;8.756;2024-02-04T08:21:59;10.00;99.90
17172;DHT22;8701;50.150;8.756;2024-02-04T08:26:01;10.00;99.90
17172;DHT22;8701;50.150;8.756;2024-02-04T08:30:05;10.00;99.90
17172;DHT22;8701;50.150;8.756;2024-02-04T08:34:09;10.00;99.90
17172;DHT22;8701;50.150;8.756;2024-02-04T08:38:13;10.10;99.90
17172;DHT22;8701;50.150;8.756;2024-02-04T08:42:16;10.10;99.90
17172;DHT22;8701;50.150;8.756;2024-02-04T08:46:18;10.20;99.90
17172;DHT22;8701;50.150;8.756;2024-02-04T08:50:20;10.20;99.90
17172;DHT22;8701;50.150;8.756;2024-02-04T08:54:24;10.30;99.90
17172;DHT22;8701;50.150;8.756;2024-02-04T08:58:26;10.30;99.90
17172;DHT22;8701;50.150;8.756;2024-02-04T09:02:28;10.40;99.90
17172;DHT22;8701;50.150;8.756;2024-02-04T09:06:31;10.50;99.90
17172;DHT22;8701;50.150;8.756;2024-02-04T09:10:34;10.50;99.90
17172;DHT22;8701;50.150;8.756;2024-02-04T09:14:36;10.50;99.90
17172;DHT22;8701;50.150;8.756;2024-02-04T09:18:39;10.50;99.90
17172;DHT22;8701;50.150;8.756;2024-02-04T09:22:41;10.50;99.90
17172;DHT22;8701;50.150;8.756;2024-02-04T09:26:45;10.50;99.90
17172;DHT22;8701;50.150;8.756;2024-02-04T09:30:47;10.50;99.90
17172;DHT22;8701;50.150;8.756;2024-02-04T09:34:49;10.40;99.90
17172;DHT22;8701;50.150;8.756;2024-02-04T09:38:52;10.40;99.90
17172;DHT22;8701;50.150;8.756;2024-02-04T09:42:56;10.50;99.90
17172;DHT22;8701;50.150;8.756;2024-02-04T09:46:59;10.50;99.90
17172;DHT22;8701;50.150;8.756;2024-02-04T09:51:02;10.50;99.90
17172;DHT22;8701;50.150;8.756;2024-02-04T09:55:06;10.60;99.90
17172;DHT22;8701;50.150;8.756;2024-02-04T09:59:11;10.60;99.90
17172;DHT22;8701;50.150;8.756;2024-02-04T10:03:13;10.70;99.90
17172;DHT22;8701;50.150;8.756;2024-02-04T10:07:15;10.70;99.90
17172;DHT22;8701;50.150;8.756;2024-02-04T10:11:19;10.70;99.90
17172;DHT22;8701;50.150;8.756;2024-02-04T10:15:22;10.70;99.90
17172;DHT22;8701;50.150;8.756;2024-02-04T10:19:25;10.80;99.90
17172;DHT22;8701;50.150;8.756;2024-02-04T10:23:27;10.70;99.90
17172;DHT22;8701;50.150;8.756;2024-02-04T10:27:29;10.80;99.90
17172;DHT22;8701;50.150;8.756;2024-02-04T10:31:33;10.90;99.90
17172;DHT22;8701;50.150;8.756;2024-02-04T10:35:35;11.00;99.90
17172;DHT22;8701;50.150;8.756;2024-02-04T10:39:37;11.10;99.90
17172;DHT22;8701;50.150;8.756;2024-02-04T10:43:42;11.10;99.90
17172;DHT22;8701;50.150;8.756;2024-02-04T10:47:52;11.20;99.90
17172;DHT22;8701;50.150;8.756;2024-02-04T10:51:56;11.20;99.90
17172;DHT22;8701;50.150;8.756;2024-02-04T10:56:03;11.30;99.90
17172;DHT22;8701;50.150;8.756;2024-02-04T11:00:07;11.20;99.90
17172;DHT22;8701;50.150;8.756;2024-02-04T11:04:14;11.10;99.90
17172;DHT22;8701;50.150;8.756;2024-02-04T11:08:16;11.00;99.90
17172;DHT22;8701;50.150;8.756;2024-02-04T11:12:20;10.90;99.90
17172;DHT22;8701;50.150;8.756;2024-02-04T11:16:31;10.80;99.90
17172;DHT22;8701;50.150;8.756;2024-02-04T11:21:17;10.80;99.90
17172;DHT22;8701;50.150;8.756;2024-02-04T11:25:42;10.90;99.90
17172;DHT22;8701;50.150;8.756;2024-02-04T11:29:45;11.00;99.90
17172;DHT22;8701;50.150;8.756;2024-02-04T11:33:50;11.10;99.90
17172;DHT22;8701;50.150;8.756;2024-02-04T11:37:55;11.10;99.90
17172;DHT22;8701;50.150;8.756;2024-02-04T11:41:57;11.10;99.90
17172;DHT22;8701;50.150;8.756;2024-02-04T11:45:59;11.10;99.90
17172;DHT22;8701;50.150;8.756;2024-02-04T11:50:03;11.10;99.90
17172;DHT22;8701;50.150;8.756;2024-02-04T11:54:06;11.20;99.90
17172;DHT22;8701;50.150;8.756;2024-02-04T11:58:08;11.20;99.90
17172;DHT22;8701;50.150;8.756;2024-02-04T12:02:11;11.40;99.90
17172;DHT22;8701;50.150;8.756;2024-02-04T12:06:14;11.50;99.90
17172;DHT22;8701;50.150;8.756;2024-02-04T12:10:20;11.30;99.90
17172;DHT22;8701;50.150;8.756;2024-02-04T12:14:22;11.30;99.90
17172;DHT22;8701;50.150;8.756;2024-02-04T12:18:24;11.30;99.90
17172;DHT22;8701;50.150;8.756;2024-02-04T12:22:27;11.30;99.90
17172;DHT22;8701;50.150;8.756;2024-02-04T12:26:31;11.30;99.90
17172;DHT22;8701;50.150;8.756;2024-02-04T12:30:33;11.50;99.90
17172;DHT22;8701;50.150;8.756;2024-02-04T12:34:35;11.50;99.90
17172;DHT22;8701;50.150;8.756;2024-02-04T12:38:38;11.50;99.90
17172;DHT22;8701;50.150;8.756;2024-02-04T12:42:42;11.50;99.90
17172;DHT22;8701;50.150;8.756;2024-02-04T12:46:44;11.50;99.90
17172;DHT22;8701;50.150;8.756;2024-02-04T12:50:46;11.60;99.90
17172;DHT22;8701;50.150;8.756;2024-02-04T12:54:49;11.60;99.90
17172;DHT22;8701;50.150;8.756;2024-02-04T12:58:55;11.50;99.90
17172;DHT22;8701;50.150;8.756;2024-02-04T13:02:58;11.40;99.90
17172;DHT22;8701;50.150;8.756;2024-02-04T13:07:00;11.30;99.90
17172;DHT22;8701;50.150;8.756;2024-02-04T13:11:02;11.40;99.90
17172;DHT22;8701;50.150;8.756;2024-02-04T13:15:07;11.40;99.90
17172;DHT22;8701;50.150;8.756;2024-02-04T13:19:10;11.30;99.90
17172;DHT22;8701;50.150;8.756;2024-02-04T13:23:12;11.40;99.90
17172;DHT22;8701;50.150;8.756;2024-02-04T13:27:14;11.40;99.90
17172;DHT22;8701;50.150;8.756;2024-02-04T13:31:20;11.50;99.90
17172;DHT22;8701;50.150;8.756;2024-02-04T13:35:23;11.60;99.90
17172;DHT22;8701;50.150;8.756;2024-02-04T13:39:26;11.80;99.90
17172;DHT22;8701;50.150;8.756;2024-02-04T13:43:28;12.00;99.90
17172;DHT22;8701;50.150;8.756;2024-02-04T13:47:32;12.30;99.90
17172;DHT22;8701;50.150;8.756;2024-02-04T13:51:34;12.30;99.90
17172;DHT22;8701;50.150;8.756;2024-02-04T13:55:37;12.20;99.90
17172;DHT22;8701;50.150;8.756;2024-02-04T13:59:39;12.10;99.90
17172;DHT22;8701;50.150;8.756;2024-02-04T14:03:43;12.00;99.90
17172;DHT22;8701;50.150;8.756;2024-02-04T14:07:45;12.00;99.90
17172;DHT22;8701;50.150;8.756;2024-02-04T14:11:47;12.00;99.90
17172;DHT22;8701;50.150;8.756;2024-02-04T14:15:50;12.00;99.90
17172;DHT22;8701;50.150;8.756;2024-02-04T14:19:54;11.80;99.90
17172;DHT22;8701;50.150;8.756;2024-02-04T14:24:00;11.70;99.90
17172;DHT22;8701;50.150;8.756;2024-02-04T14:28:02;11.60;99.90
17172;DHT22;8701;50.150;8.756;2024-02-04T14:32:05;11.50;99.90
17172;DHT22;8701;50.150;8.756;2024-02-04T14:36:09;11.40;99.90
17172;DHT22;8701;50.150;8.756;2024-02-04T14:40:12;11.30;99.90
17172;DHT22;8701;50.150;8.756;2024-02-04T14:44:15;11.30;99.90
17172;DHT22;8701;50.150;8.756;2024-02-04T14:48:17;11.30;99.90
17172;DHT22;8701;50.150;8.756;2024-02-04T14:52:21;11.40;99.90
17172;DHT22;8701;50.150;8.756;2024-02-04T14:56:23;11.30;99.90
17172;DHT22;8701;50.150;8.756;2024-02-04T15:00:25;11.40;99.90
17172;DHT22;8701;50.150;8.756;2024-02-04T15:04:30;11.40;99.90
17172;DHT22;8701;50.150;8.756;2024-02-04T15:08:34;11.50;99.90
17172;DHT22;8701;50.150;8.756;2024-02-04T15:12:37;11.50;99.90
17172;DHT22;8701;50.150;8.756;2024-02-04T15:16:41;11.50;99.90
17172;DHT22;8701;50.150;8.756;2024-02-04T15:20:44;11.50;99.90
17172;DHT22;8701;50.150;8.756;2024-02-04T15:24:49;11.40;99.90
17172;DHT22;8701;50.150;8.756;2024-02-04T15:28:51;11.40;99.90
17172;DHT22;8701;50.150;8.756;2024-02-04T15:32:54;11.40;99.90
17172;DHT22;8701;50.150;8.756;2024-02-04T15:36:56;11.40;99.90
17172;DHT22;8701;50.150;8.756;2024-02-04T15:41:01;11.40;99.90
17172;DHT22;8701;50.150;8.756;2024-02-04T15:45:03;11.40;99.90
17172;DHT22;8701;50.150;8.756;2024-02-04T15:49:06;11.30;99.90
17172;DHT22;8701;50.150;8.756;2024-02-04T15:53:13;11.40;99.90
17172;DHT22;8701;50.150;8.756;2024-02-04T15:57:20;11.30;99.90
17172;DHT22;8701;50.150;8.756;2024-02-04T16:01:23;11.30;99.90
17172;DHT22;8701;50.150;8.756;2024-02-04T16:05:29;11.20;99.90
17172;DHT22;8701;50.150;8.756;2024-02-04T16:09:31;11.20;99.90
17172;DHT22;8701;50.150;8.756;2024-02-04T16:13:37;11.30;99.90
17172;DHT22;8701;50.150;8.756;2024-02-04T16:17:40;11.20;99.90
17172;DHT22;8701;50.150;8.756;2024-02-04T16:21:43;11.20;99.90
17172;DHT22;8701;50.150;8.756;2024-02-04T16:25:45;11.20;99.90
17172;DHT22;8701;50.150;8.756;2024-02-04T16:29:49;11.20;99.90
17172;DHT22;8701;50.150;8.756;2024-02-04T16:33:52;11.20;99.90
17172;DHT22;8701;50.150;8.756;2024-02-04T16:37:58;11.20;99.90
17172;DHT22;8701;50.150;8.756;2024-02-04T16:42:01;11.10;99.90
17172;DHT22;8701;50.150;8.756;2024-02-04T16:46:05;11.20;99.90
17172;DHT22;8701;50.150;8.756;2024-02-04T16:50:09;11.10;99.90
17172;DHT22;8701;50.150;8.756;2024-02-04T16:54:11;11.10;99.90
17172;DHT22;8701;50.150;8.756;2024-02-04T16:58:14;11.10;99.90
17172;DHT22;8701;50.150;8.756;2024-02-04T17:02:18;11.00;99.90
17172;DHT22;8701;50.150;8.756;2024-02-04T17:06:23;11.00;99.90
17172;DHT22;8701;50.150;8.756;2024-02-04T17:10:26;11.00;99.90
17172;DHT22;8701;50.150;8.756;2024-02-04T17:14:30;11.00;99.90
17172;DHT22;8701;50.150;8.756;2024-02-04T17:18:41;11.00;99.90
17172;DHT22;8701;50.150;8.756;2024-02-04T17:22:46;11.00;99.90
17172;DHT22;8701;50.150;8.756;2024-02-04T17:26:54;11.00;99.90
17172;DHT22;8701;50.150;8.756;2024-02-04T17:30:57;11.00;99.90
17172;DHT22;8701;50.150;8.756;2024-02-04T17:35:02;11.00;99.90
17172;DHT22;8701;50.150;8.756;2024-02-04T17:39:05;11.00;99.90
17172;DHT22;8701;50.150;8.756;2024-02-04T17:43:07;11.00;99.90
17172;DHT22;8701;50.150;8.756;2024-02-04T17:47:11;11.00;99.90
17172;DHT22;8701;50.150;8.756;2024-02-04T17:51:15;11.00;99.90
17172;DHT22;8701;50.150;8.756;2024-02-04T17:55:17;11.00;99.90
17172;DHT22;8701;50.150;8.756;2024-02-04T17:59:21;11.00;99.90
17172;DHT22;8701;50.150;8.756;2024-02-04T18:03:23;11.00;99.90
17172;DHT22;8701;50.150;8.756;2024-02-04T18:07:27;11.00;99.90
17172;DHT22;8701;50.150;8.756;2024-02-04T18:11:29;10.90;99.90
17172;DHT22;8701;50.150;8.756;2024-02-04T18:15:32;10.90;99.90
17172;DHT22;8701;50.150;8.756;2024-02-04T18:19:35;10.90;99.90
17172;DHT22;8701;50.150;8.756;2024-02-04T18:23:38;10.90;99.90
17172;DHT22;8701;50.150;8.756;2024-02-04T18:27:41;10.90;99.90
17172;DHT22;8701;50.150;8.756;2024-02-04T18:31:44;10.90;99.90
17172;DHT22;8701;50.150;8.756;2024-02-04T18:35:48;10.90;99.90
17172;DHT22;8701;50.150;8.756;2024-02-04T18:39:51;10.90;99.90
17172;DHT22;8701;50.150;8.756;2024-02-04T18:43:54;10.90;99.90
17172;DHT22;8701;50.150;8.756;2024-02-04T18:47:56;10.90;99.90
17172;DHT22;8701;50.150;8.756;2024-02-04T18:51:59;10.90;99.90
17172;DHT22;8701;50.150;8.756;2024-02-04T18:56:05;10.90;99.90
17172;DHT22;8701;50.150;8.756;2024-02-04T19:00:08;11.00;99.90
17172;DHT22;8701;50.150;8.756;2024-02-04T19:04:11;10.90;99.90
17172;DHT22;8701;50.150;8.756;2024-02-04T19:08:13;10.90;99.90
17172;DHT22;8701;50.150;8.756;2024-02-04T19:12:18;10.80;99.90
17172;DHT22;8701;50.150;8.756;2024-02-04T19:16:20;10.70;99.90
17172;DHT22;8701;50.150;8.756;2024-02-04T19:20:23;10.70;99.90
17172;DHT22;8701;50.150;8.756;2024-02-04T19:24:25;10.80;99.90
17172;DHT22;8701;50.150;8.756;2024-02-04T19:28:29;10.80;99.90
17172;DHT22;8701;50.150;8.756;2024-02-04T19:32:34;10.80;99.90
17172;DHT22;8701;50.150;8.756;2024-02-04T19:36:40;10.80;99.90
17172;DHT22;8701;50.150;8.756;2024-02-04T19:40:42;10.80;99.90
17172;DHT22;8701;50.150;8.756;2024-02-04T19:44:46;10.80;99.90
17172;DHT22;8701;50.150;8.756;2024-02-04T19:48:48;10.80;99.90
17172;DHT22;8701;50.150;8.756;2024-02-04T19:52:52;10.80;99.90
17172;DHT22;8701;50.150;8.756;2024-02-04T19:56:54;10.90;99.90
17172;DHT22;8701;50.150;8.756;2024-02-04T20:00:58;10.90;99.90
17172;DHT22;8701;50.150;8.756;2024-02-04T20:05:01;10.90;99.90
17172;DHT22;8701;50.150;8.756;2024-02-04T20:09:04;10.90;99.90
17172;DHT22;8701;50.150;8.756;2024-02-04T20:13:06;10.90;99.90
17172;DHT22;8701;50.150;8.756;2024-02-04T20:17:10;10.90;99.90
17172;DHT22;8701;50.150;8.756;2024-02-04T20:21:12;10.90;99.90
17172;DHT22;8701;50.150;8.756;2024-02-04T20:25:14;10.90;99.90
17172;DHT22;8701;50.150;8.756;2024-02-04T20:29:16;10.80;99.90
17172;DHT22;8701;50.150;8.756;2024-02-04T20:33:21;10.80;99.90
17172;DHT22;8701;50.150;8.756;2024-02-04T20:37:23;10.80;99.90
17172;DHT22;8701;50.150;8.756;2024-02-04T20:41:27;10.80;99.90
17172;DHT22;8701;50.150;8.756;2024-02-04T20:45:30;10.80;99.90
17172;DHT22;8701;50.150;8.756;2024-02-04T20:49:33;10.80;99.90
17172;DHT22;8701;50.150;8.756;2024-02-04T20:53:36;10.80;99.90
17172;DHT22;8701;50.150;8.756;2024-02-04T20:57:42;10.80;99.90
17172;DHT22;8701;50.150;8.756;2024-02-04T21:01:46;10.80;99.90
17172;DHT22;8701;50.150;8.756;2024-02-04T21:05:50;10.80;99.90
17172;DHT22;8701;50.150;8.756;2024-02-04T21:09:53;10.80;99.90
17172;DHT22;8701;50.150;8.756;2024-02-04T21:13:55;10.80;99.90
17172;DHT22;8701;50.150;8.756;2024-02-04T21:17:59;10.80;99.90
17172;DHT22;8701;50.150;8.756;2024-02-04T21:22:03;10.80;99.90
17172;DHT22;8701;50.150;8.756;2024-02-04T21:26:07;10.80;99.90
17172;DHT22;8701;50.150;8.756;2024-02-04T21:30:10;10.80;99.90
17172;DHT22;8701;50.150;8.756;2024-02-04T21:34:13;10.80;99.90
17172;DHT22;8701;50.150;8.756;2024-02-04T21:38:17;10.70;99.90
17172;DHT22;8701;50.150;8.756;2024-02-04T21:42:20;10.70;99.90
17172;DHT22;8701;50.150;8.756;2024-02-04T21:46:22;10.70;99.90
17172;DHT22;8701;50.150;8.756;2024-02-04T21:50:24;10.70;99.90
17172;DHT22;8701;50.150;8.756;2024-02-04T21:54:28;10.70;99.90
17172;DHT22;8701;50.150;8.756;2024-02-04T21:58:34;10.70;99.90
17172;DHT22;8701;50.150;8.756;2024-02-04T22:02:36;10.70;99.90
17172;DHT22;8701;50.150;8.756;2024-02-04T22:06:41;10.70;99.90
17172;DHT22;8701;50.150;8.756;2024-02-04T22:10:44;10.70;99.90
17172;DHT22;8701;50.150;8.756;2024-02-04T22:14:46;10.70;99.90
17172;DHT22;8701;50.150;8.756;2024-02-04T22:18:49;10.70;99.90
17172;DHT22;8701;50.150;8.756;2024-02-04T22:22:51;10.70;99.90
17172;DHT22;8701;50.150;8.756;2024-02-04T22:26:55;10.60;99.90
17172;DHT22;8701;50.150;8.756;2024-02-04T22:30:57;10.90;99.90
17172;DHT22;8701;50.150;8.756;2024-02-04T22:34:59;10.60;99.90
17172;DHT22;8701;50.150;8.756;2024-02-04T22:39:01;10.60;99.90
17172;DHT22;8701;50.150;8.756;2024-02-04T22:43:05;10.60;99.90
17172;DHT22;8701;50.150;8.756;2024-02-04T22:47:08;10.60;99.90
17172;DHT22;8701;50.150;8.756;2024-02-04T22:51:12;10.60;99.90
17172;DHT22;8701;50.150;8.756;2024-02-04T22:55:15;10.70;99.90
17172;DHT22;8701;50.150;8.756;2024-02-04T22:59:19;10.60;99.90
17172;DHT22;8701;50.150;8.756;2024-02-04T23:03:21;10.60;99.90
17172;DHT22;8701;50.150;8.756;2024-02-04T23:07:23;10.30;99.90
17172;DHT22;8701;50.150;8.756;2024-02-04T23:11:25;10.50;99.90
17172;DHT22;8701;50.150;8.756;2024-02-04T23:15:29;10.50;99.90
17172;DHT22;8701;50.150;8.756;2024-02-04T23:19:32;10.40;99.90
17172;DHT22;8701;50.150;8.756;2024-02-04T23:23:34;10.40;99.90
17172;DHT22;8701;50.150;8.756;2024-02-04T23:27:37;10.30;99.90
17172;DHT22;8701;50.150;8.756;2024-02-04T23:31:41;10.30;99.90
17172;DHT22;8701;50.150;8.756;2024-02-04T23:35:43;10.20;99.90
17172;DHT22;8701;50.150;8.756;2024-02-04T23:39:45;10.10;99.90
17172;DHT22;8701;50.150;8.756;2024-02-04T23:43:48;10.10;99.90
17172;DHT22;8701;50.150;8.756;2024-02-04T23:47:51;10.10;99.90
17172;DHT22;8701;50.150;8.756;2024-02-04T23:51:53;10.00;99.90
17172;DHT22;8701;50.150;8.756;2024-02-04T23:55:56;10.00;99.90
17172;DHT22;8701;50.150;8.756;2024-02-04T23:59:58;10.00;99.90
